sensor_id;sensor_type;location;lat;lon;timestamp;pressure;altitude;pressure_sealevel;temperature
35582;BMP180;21687;48.900;9.188;2024-03-08T00:00:31;98330.00;;;2.20
35582;BMP180;21687;48.900;9.188;2024-03-08T00:03:19;98314.00;;;2.10
35582;BMP180;21687;48.900;9.188;2024-03-08T00:06:05;98326.00;;;2.10
35582;BMP180;21687;48.900;9.188;2024-03-08T00:08:52;98320.00;;;2.10
35582;BMP180;21687;48.900;9.188;2024-03-08T00:11:38;98320.00;;;2.10
35582;BMP180;21687;48.900;9.188;2024-03-08T00:14:26;98309.00;;;2.00
35582;BMP180;21687;48.900;9.188;2024-03-08T00:17:12;98309.00;;;2.00
35582;BMP180;21687;48.900;9.188;2024-03-08T00:19:59;98313.00;;;2.00
35582;BMP180;21687;48.900;9.188;2024-03-08T00:22:45;98301.00;;;2.00
35582;BMP180;21687;48.900;9.188;2024-03-08T00:25:32;98306.00;;;1.90
35582;BMP180;21687;48.900;9.188;2024-03-08T00:28:18;98306.00;;;2.00
35582;BMP180;21687;48.900;9.188;2024-03-08T00:31:05;98305.00;;;1.90
35582;BMP180;21687;48.900;9.188;2024-03-08T00:33:53;98306.00;;;1.80
35582;BMP180;21687;48.900;9.188;2024-03-08T00:36:39;98310.00;;;1.80
35582;BMP180;21687;48.900;9.188;2024-03-08T00:39:26;98299.00;;;1.80
35582;BMP180;21687;48.900;9.188;2024-03-08T00:42:12;98302.00;;;1.70
35582;BMP180;21687;48.900;9.188;2024-03-08T00:44:59;98284.00;;;1.60
35582;BMP180;21687;48.900;9.188;2024-03-08T00:47:46;98278.00;;;1.50
35582;BMP180;21687;48.900;9.188;2024-03-08T00:50:32;98278.00;;;1.40
35582;BMP180;21687;48.900;9.188;2024-03-08T00:53:20;98274.00;;;1.30
35582;BMP180;21687;48.900;9.188;2024-03-08T00:56:07;98270.00;;;1.10
35582;BMP180;21687;48.900;9.188;2024-03-08T00:58:56;98263.00;;;1.00
35582;BMP180;21687;48.900;9.188;2024-03-08T01:01:42;98269.00;;;0.80
35582;BMP180;21687;48.900;9.188;2024-03-08T01:04:30;98265.00;;;0.70
35582;BMP180;21687;48.900;9.188;2024-03-08T01:07:16;98265.00;;;0.90
35582;BMP180;21687;48.900;9.188;2024-03-08T01:10:04;98270.00;;;0.90
35582;BMP180;21687;48.900;9.188;2024-03-08T01:12:51;98262.00;;;0.70
35582;BMP180;21687;48.900;9.188;2024-03-08T01:15:37;98255.00;;;0.60
35582;BMP180;21687;48.900;9.188;2024-03-08T01:18:25;98255.00;;;0.40
35582;BMP180;21687;48.900;9.188;2024-03-08T01:21:12;98249.00;;;0.30
35582;BMP180;21687;48.900;9.188;2024-03-08T01:23:59;98253.00;;;0.40
35582;BMP180;21687;48.900;9.188;2024-03-08T01:26:45;98251.00;;;0.50
35582;BMP180;21687;48.900;9.188;2024-03-08T01:29:33;98256.00;;;0.60
35582;BMP180;21687;48.900;9.188;2024-03-08T01:32:19;98251.00;;;0.60
35582;BMP180;21687;48.900;9.188;2024-03-08T01:35:06;98247.00;;;0.60
35582;BMP180;21687;48.900;9.188;2024-03-08T01:37:53;98230.00;;;0.70
35582;BMP180;21687;48.900;9.188;2024-03-08T01:40:39;98231.00;;;0.50
35582;BMP180;21687;48.900;9.188;2024-03-08T01:43:28;98223.00;;;0.60
35582;BMP180;21687;48.900;9.188;2024-03-08T01:46:19;98227.00;;;0.70
35582;BMP180;21687;48.900;9.188;2024-03-08T01:49:05;98227.00;;;0.70
35582;BMP180;21687;48.900;9.188;2024-03-08T01:51:52;98224.00;;;0.70
35582;BMP180;21687;48.900;9.188;2024-03-08T01:54:39;98222.00;;;0.70
35582;BMP180;21687;48.900;9.188;2024-03-08T01:57:28;98201.00;;;0.70
35582;BMP180;21687;48.900;9.188;2024-03-08T02:00:15;98211.00;;;0.70
35582;BMP180;21687;48.900;9.188;2024-03-08T02:03:02;98200.00;;;0.80
35582;BMP180;21687;48.900;9.188;2024-03-08T02:05:50;98196.00;;;0.70
35582;BMP180;21687;48.900;9.188;2024-03-08T02:08:37;98191.00;;;0.70
35582;BMP180;21687;48.900;9.188;2024-03-08T02:11:24;98187.00;;;0.70
35582;BMP180;21687;48.900;9.188;2024-03-08T02:14:10;98184.00;;;0.60
35582;BMP180;21687;48.900;9.188;2024-03-08T02:17:01;98177.00;;;0.50
35582;BMP180;21687;48.900;9.188;2024-03-08T02:19:47;98174.00;;;0.50
35582;BMP180;21687;48.900;9.188;2024-03-08T02:22:34;98173.00;;;0.30
35582;BMP180;21687;48.900;9.188;2024-03-08T02:25:20;98182.00;;;0.30
35582;BMP180;21687;48.900;9.188;2024-03-08T02:28:07;98164.00;;;0.20
35582;BMP180;21687;48.900;9.188;2024-03-08T02:30:55;98162.00;;;0.10
35582;BMP180;21687;48.900;9.188;2024-03-08T02:33:42;98156.00;;;0.10
35582;BMP180;21687;48.900;9.188;2024-03-08T02:36:28;98153.00;;;0.00
35582;BMP180;21687;48.900;9.188;2024-03-08T02:39:16;98149.00;;;-0.10
35582;BMP180;21687;48.900;9.188;2024-03-08T02:42:02;98141.00;;;-0.10
35582;BMP180;21687;48.900;9.188;2024-03-08T02:44:49;98147.00;;;-0.20
35582;BMP180;21687;48.900;9.188;2024-03-08T02:47:35;98148.00;;;-0.30
35582;BMP180;21687;48.900;9.188;2024-03-08T02:50:22;98151.00;;;-0.30
35582;BMP180;21687;48.900;9.188;2024-03-08T02:53:09;98147.00;;;-0.40
35582;BMP180;21687;48.900;9.188;2024-03-08T02:55:56;98143.00;;;-0.50
35582;BMP180;21687;48.900;9.188;2024-03-08T02:58:43;98144.00;;;-0.50
35582;BMP180;21687;48.900;9.188;2024-03-08T03:01:29;98127.00;;;-0.60
35582;BMP180;21687;48.900;9.188;2024-03-08T03:04:16;98128.00;;;-0.50
35582;BMP180;21687;48.900;9.188;2024-03-08T03:07:02;98126.00;;;-0.50
35582;BMP180;21687;48.900;9.188;2024-03-08T03:09:51;98130.00;;;-0.50
35582;BMP180;21687;48.900;9.188;2024-03-08T03:12:37;98134.00;;;-0.50
35582;BMP180;21687;48.900;9.188;2024-03-08T03:15:24;98126.00;;;-0.40
35582;BMP180;21687;48.900;9.188;2024-03-08T03:18:10;98133.00;;;-0.20
35582;BMP180;21687;48.900;9.188;2024-03-08T03:20:58;98139.00;;;-0.20
35582;BMP180;21687;48.900;9.188;2024-03-08T03:23:44;98131.00;;;-0.20
35582;BMP180;21687;48.900;9.188;2024-03-08T03:26:31;98132.00;;;-0.20
35582;BMP180;21687;48.900;9.188;2024-03-08T03:29:17;98123.00;;;-0.20
35582;BMP180;21687;48.900;9.188;2024-03-08T03:32:04;98121.00;;;0.00
35582;BMP180;21687;48.900;9.188;2024-03-08T03:34:50;98120.00;;;0.00
35582;BMP180;21687;48.900;9.188;2024-03-08T03:37:40;98112.00;;;-0.10
35582;BMP180;21687;48.900;9.188;2024-03-08T03:40:29;98113.00;;;-0.10
35582;BMP180;21687;48.900;9.188;2024-03-08T03:43:15;98103.00;;;-0.20
35582;BMP180;21687;48.900;9.188;2024-03-08T03:46:02;98096.00;;;-0.30
35582;BMP180;21687;48.900;9.188;2024-03-08T03:48:48;98102.00;;;-0.40
35582;BMP180;21687;48.900;9.188;2024-03-08T03:51:35;98110.00;;;-0.50
35582;BMP180;21687;48.900;9.188;2024-03-08T03:54:21;98103.00;;;-0.60
35582;BMP180;21687;48.900;9.188;2024-03-08T03:57:08;98109.00;;;-0.60
35582;BMP180;21687;48.900;9.188;2024-03-08T03:59:54;98098.00;;;-0.60
35582;BMP180;21687;48.900;9.188;2024-03-08T04:02:41;98100.00;;;-0.80
35582;BMP180;21687;48.900;9.188;2024-03-08T04:05:28;98099.00;;;-0.80
35582;BMP180;21687;48.900;9.188;2024-03-08T04:08:15;98095.00;;;-0.90
35582;BMP180;21687;48.900;9.188;2024-03-08T04:11:02;98096.00;;;-0.80
35582;BMP180;21687;48.900;9.188;2024-03-08T04:13:49;98095.00;;;-1.00
35582;BMP180;21687;48.900;9.188;2024-03-08T04:16:35;98094.00;;;-1.10
35582;BMP180;21687;48.900;9.188;2024-03-08T04:19:22;98095.00;;;-1.00
35582;BMP180;21687;48.900;9.188;2024-03-08T04:22:09;98093.00;;;-0.90
35582;BMP180;21687;48.900;9.188;2024-03-08T04:24:55;98102.00;;;-0.90
35582;BMP180;21687;48.900;9.188;2024-03-08T04:27:42;98089.00;;;-0.80
35582;BMP180;21687;48.900;9.188;2024-03-08T04:30:28;98084.00;;;-0.80
35582;BMP180;21687;48.900;9.188;2024-03-08T04:33:15;98086.00;;;-0.80
35582;BMP180;21687;48.900;9.188;2024-03-08T04:36:03;98074.00;;;-0.90
35582;BMP180;21687;48.900;9.188;2024-03-08T04:38:54;98078.00;;;-0.90
35582;BMP180;21687;48.900;9.188;2024-03-08T04:41:41;98069.00;;;-0.90
35582;BMP180;21687;48.900;9.188;2024-03-08T04:44:30;98076.00;;;-0.90
35582;BMP180;21687;48.900;9.188;2024-03-08T04:47:17;98069.00;;;-0.90
35582;BMP180;21687;48.900;9.188;2024-03-08T04:50:04;98063.00;;;-0.90
35582;BMP180;21687;48.900;9.188;2024-03-08T04:52:51;98067.00;;;-1.00
35582;BMP180;21687;48.900;9.188;2024-03-08T04:55:37;98067.00;;;-1.20
35582;BMP180;21687;48.900;9.188;2024-03-08T04:58:24;98062.00;;;-1.30
35582;BMP180;21687;48.900;9.188;2024-03-08T05:01:10;98062.00;;;-1.40
35582;BMP180;21687;48.900;9.188;2024-03-08T05:03:57;98068.00;;;-1.40
35582;BMP180;21687;48.900;9.188;2024-03-08T05:06:43;98070.00;;;-1.40
35582;BMP180;21687;48.900;9.188;2024-03-08T05:09:30;98063.00;;;-1.40
35582;BMP180;21687;48.900;9.188;2024-03-08T05:12:18;98065.00;;;-1.50
35582;BMP180;21687;48.900;9.188;2024-03-08T05:15:06;98063.00;;;-1.50
35582;BMP180;21687;48.900;9.188;2024-03-08T05:17:53;98049.00;;;-1.60
35582;BMP180;21687;48.900;9.188;2024-03-08T05:20:42;98053.00;;;-1.60
35582;BMP180;21687;48.900;9.188;2024-03-08T05:23:28;98052.00;;;-1.70
35582;BMP180;21687;48.900;9.188;2024-03-08T05:26:15;98048.00;;;-1.60
35582;BMP180;21687;48.900;9.188;2024-03-08T05:29:02;98045.00;;;-1.70
35582;BMP180;21687;48.900;9.188;2024-03-08T05:31:51;98043.00;;;-1.70
35582;BMP180;21687;48.900;9.188;2024-03-08T05:34:41;98046.00;;;-1.60
35582;BMP180;21687;48.900;9.188;2024-03-08T05:37:27;98047.00;;;-1.70
35582;BMP180;21687;48.900;9.188;2024-03-08T05:40:14;98051.00;;;-1.80
35582;BMP180;21687;48.900;9.188;2024-03-08T05:43:01;98046.00;;;-1.80
35582;BMP180;21687;48.900;9.188;2024-03-08T05:45:47;98048.00;;;-1.80
35582;BMP180;21687;48.900;9.188;2024-03-08T05:48:34;98051.00;;;-1.70
35582;BMP180;21687;48.900;9.188;2024-03-08T05:51:20;98047.00;;;-1.60
35582;BMP180;21687;48.900;9.188;2024-03-08T05:54:12;98049.00;;;-1.60
35582;BMP180;21687;48.900;9.188;2024-03-08T05:56:58;98047.00;;;-1.40
35582;BMP180;21687;48.900;9.188;2024-03-08T05:59:45;98042.00;;;-1.10
35582;BMP180;21687;48.900;9.188;2024-03-08T06:02:31;98039.00;;;-1.10
35582;BMP180;21687;48.900;9.188;2024-03-08T06:05:19;98045.00;;;-1.00
35582;BMP180;21687;48.900;9.188;2024-03-08T06:08:06;98036.00;;;-0.90
35582;BMP180;21687;48.900;9.188;2024-03-08T06:10:54;98038.00;;;-1.00
35582;BMP180;21687;48.900;9.188;2024-03-08T06:13:40;98024.00;;;-0.90
35582;BMP180;21687;48.900;9.188;2024-03-08T06:16:27;98043.00;;;-0.80
35582;BMP180;21687;48.900;9.188;2024-03-08T06:19:16;98036.00;;;-0.80
35582;BMP180;21687;48.900;9.188;2024-03-08T06:22:03;98040.00;;;-0.80
35582;BMP180;21687;48.900;9.188;2024-03-08T06:24:51;98034.00;;;-0.80
35582;BMP180;21687;48.900;9.188;2024-03-08T06:27:43;98042.00;;;-0.70
35582;BMP180;21687;48.900;9.188;2024-03-08T06:30:30;98038.00;;;-0.60
35582;BMP180;21687;48.900;9.188;2024-03-08T06:33:18;98035.00;;;-0.60
35582;BMP180;21687;48.900;9.188;2024-03-08T06:36:04;98040.00;;;-0.50
35582;BMP180;21687;48.900;9.188;2024-03-08T06:38:51;98044.00;;;-0.40
35582;BMP180;21687;48.900;9.188;2024-03-08T06:41:38;98045.00;;;-0.30
35582;BMP180;21687;48.900;9.188;2024-03-08T06:44:25;98047.00;;;-0.20
35582;BMP180;21687;48.900;9.188;2024-03-08T06:47:11;98036.00;;;-0.10
35582;BMP180;21687;48.900;9.188;2024-03-08T06:49:58;98047.00;;;0.00
35582;BMP180;21687;48.900;9.188;2024-03-08T06:52:45;98044.00;;;0.10
35582;BMP180;21687;48.900;9.188;2024-03-08T06:55:34;98043.00;;;0.30
35582;BMP180;21687;48.900;9.188;2024-03-08T06:58:21;98050.00;;;0.40
35582;BMP180;21687;48.900;9.188;2024-03-08T07:01:08;98048.00;;;0.50
35582;BMP180;21687;48.900;9.188;2024-03-08T07:04:00;98041.00;;;0.50
35582;BMP180;21687;48.900;9.188;2024-03-08T07:06:48;98038.00;;;0.70
35582;BMP180;21687;48.900;9.188;2024-03-08T07:09:39;98044.00;;;0.80
35582;BMP180;21687;48.900;9.188;2024-03-08T07:12:25;98040.00;;;1.00
35582;BMP180;21687;48.900;9.188;2024-03-08T07:15:12;98036.00;;;1.20
35582;BMP180;21687;48.900;9.188;2024-03-08T07:18:00;98041.00;;;1.30
35582;BMP180;21687;48.900;9.188;2024-03-08T07:20:46;98031.00;;;1.60
35582;BMP180;21687;48.900;9.188;2024-03-08T07:23:33;98028.00;;;1.60
35582;BMP180;21687;48.900;9.188;2024-03-08T07:26:38;98030.00;;;1.80
35582;BMP180;21687;48.900;9.188;2024-03-08T07:29:24;98021.00;;;1.90
35582;BMP180;21687;48.900;9.188;2024-03-08T07:32:11;98027.00;;;2.10
35582;BMP180;21687;48.900;9.188;2024-03-08T07:35:05;98023.00;;;2.20
35582;BMP180;21687;48.900;9.188;2024-03-08T07:37:52;98018.00;;;2.30
35582;BMP180;21687;48.900;9.188;2024-03-08T07:40:42;98017.00;;;2.50
35582;BMP180;21687;48.900;9.188;2024-03-08T07:43:31;98022.00;;;2.60
35582;BMP180;21687;48.900;9.188;2024-03-08T07:46:18;98031.00;;;2.80
35582;BMP180;21687;48.900;9.188;2024-03-08T07:49:05;98023.00;;;2.60
35582;BMP180;21687;48.900;9.188;2024-03-08T07:51:52;98011.00;;;2.80
35582;BMP180;21687;48.900;9.188;2024-03-08T07:54:39;98027.00;;;2.90
35582;BMP180;21687;48.900;9.188;2024-03-08T07:57:26;98005.00;;;3.00
35582;BMP180;21687;48.900;9.188;2024-03-08T08:00:13;98009.00;;;3.00
35582;BMP180;21687;48.900;9.188;2024-03-08T08:03:04;98007.00;;;3.10
35582;BMP180;21687;48.900;9.188;2024-03-08T08:05:51;98002.00;;;3.10
35582;BMP180;21687;48.900;9.188;2024-03-08T08:08:37;98003.00;;;3.30
35582;BMP180;21687;48.900;9.188;2024-03-08T08:11:27;98005.00;;;3.30
35582;BMP180;21687;48.900;9.188;2024-03-08T08:14:15;98013.00;;;3.40
35582;BMP180;21687;48.900;9.188;2024-03-08T08:17:01;98009.00;;;3.50
35582;BMP180;21687;48.900;9.188;2024-03-08T08:19:50;98008.00;;;3.50
35582;BMP180;21687;48.900;9.188;2024-03-08T08:22:37;98009.00;;;3.50
35582;BMP180;21687;48.900;9.188;2024-03-08T08:25:25;97994.00;;;3.70
35582;BMP180;21687;48.900;9.188;2024-03-08T08:28:11;97993.00;;;3.80
35582;BMP180;21687;48.900;9.188;2024-03-08T08:30:59;98001.00;;;4.00
35582;BMP180;21687;48.900;9.188;2024-03-08T08:33:45;97988.00;;;4.00
35582;BMP180;21687;48.900;9.188;2024-03-08T08:36:34;97991.00;;;4.00
35582;BMP180;21687;48.900;9.188;2024-03-08T08:39:21;97986.00;;;4.10
35582;BMP180;21687;48.900;9.188;2024-03-08T08:42:09;97993.00;;;4.10
35582;BMP180;21687;48.900;9.188;2024-03-08T08:44:55;97977.00;;;4.20
35582;BMP180;21687;48.900;9.188;2024-03-08T08:47:47;97988.00;;;4.30
35582;BMP180;21687;48.900;9.188;2024-03-08T08:50:33;97981.00;;;4.30
35582;BMP180;21687;48.900;9.188;2024-03-08T08:53:19;97987.00;;;4.30
35582;BMP180;21687;48.900;9.188;2024-03-08T08:56:06;97986.00;;;4.30
35582;BMP180;21687;48.900;9.188;2024-03-08T08:58:54;97982.00;;;4.50
35582;BMP180;21687;48.900;9.188;2024-03-08T09:01:41;97986.00;;;4.40
35582;BMP180;21687;48.900;9.188;2024-03-08T09:04:27;97991.00;;;4.60
35582;BMP180;21687;48.900;9.188;2024-03-08T09:07:15;97983.00;;;4.60
35582;BMP180;21687;48.900;9.188;2024-03-08T09:10:03;97985.00;;;4.30
35582;BMP180;21687;48.900;9.188;2024-03-08T09:12:50;97984.00;;;4.20
35582;BMP180;21687;48.900;9.188;2024-03-08T09:15:36;97975.00;;;4.30
35582;BMP180;21687;48.900;9.188;2024-03-08T09:18:25;97978.00;;;4.30
35582;BMP180;21687;48.900;9.188;2024-03-08T09:21:11;97982.00;;;4.60
35582;BMP180;21687;48.900;9.188;2024-03-08T09:23:59;97973.00;;;4.40
35582;BMP180;21687;48.900;9.188;2024-03-08T09:26:46;97963.00;;;4.60
35582;BMP180;21687;48.900;9.188;2024-03-08T09:29:32;97969.00;;;4.50
35582;BMP180;21687;48.900;9.188;2024-03-08T09:32:18;97966.00;;;4.50
35582;BMP180;21687;48.900;9.188;2024-03-08T09:35:05;97971.00;;;4.60
35582;BMP180;21687;48.900;9.188;2024-03-08T09:37:53;97975.00;;;4.60
35582;BMP180;21687;48.900;9.188;2024-03-08T09:40:43;97966.00;;;4.70
35582;BMP180;21687;48.900;9.188;2024-03-08T09:43:30;97959.00;;;4.50
35582;BMP180;21687;48.900;9.188;2024-03-08T09:46:19;97964.00;;;4.70
35582;BMP180;21687;48.900;9.188;2024-03-08T09:49:06;97956.00;;;4.70
35582;BMP180;21687;48.900;9.188;2024-03-08T09:51:53;97948.00;;;4.90
35582;BMP180;21687;48.900;9.188;2024-03-08T09:54:39;97958.00;;;5.00
35582;BMP180;21687;48.900;9.188;2024-03-08T09:57:26;97964.00;;;4.80
35582;BMP180;21687;48.900;9.188;2024-03-08T10:00:13;97949.00;;;5.00
35582;BMP180;21687;48.900;9.188;2024-03-08T10:03:10;97955.00;;;5.10
35582;BMP180;21687;48.900;9.188;2024-03-08T10:05:57;97959.00;;;5.10
35582;BMP180;21687;48.900;9.188;2024-03-08T10:08:46;97947.00;;;4.90
35582;BMP180;21687;48.900;9.188;2024-03-08T10:11:33;97937.00;;;4.90
35582;BMP180;21687;48.900;9.188;2024-03-08T10:14:21;97940.00;;;5.00
35582;BMP180;21687;48.900;9.188;2024-03-08T10:17:08;97943.00;;;5.30
35582;BMP180;21687;48.900;9.188;2024-03-08T10:19:55;97933.00;;;5.30
35582;BMP180;21687;48.900;9.188;2024-03-08T10:22:42;97929.00;;;5.30
35582;BMP180;21687;48.900;9.188;2024-03-08T10:25:35;97931.00;;;5.50
35582;BMP180;21687;48.900;9.188;2024-03-08T10:28:23;97928.00;;;5.60
35582;BMP180;21687;48.900;9.188;2024-03-08T10:31:11;97923.00;;;5.90
35582;BMP180;21687;48.900;9.188;2024-03-08T10:33:57;97919.00;;;5.70
35582;BMP180;21687;48.900;9.188;2024-03-08T10:36:44;97919.00;;;5.80
35582;BMP180;21687;48.900;9.188;2024-03-08T10:39:36;97908.00;;;5.90
35582;BMP180;21687;48.900;9.188;2024-03-08T10:42:28;97915.00;;;6.10
35582;BMP180;21687;48.900;9.188;2024-03-08T10:45:15;97912.00;;;6.00
35582;BMP180;21687;48.900;9.188;2024-03-08T10:51:06;97914.00;;;6.00
35582;BMP180;21687;48.900;9.188;2024-03-08T10:53:55;97902.00;;;6.10
35582;BMP180;21687;48.900;9.188;2024-03-08T10:56:42;97899.00;;;6.00
35582;BMP180;21687;48.900;9.188;2024-03-08T10:59:30;97902.00;;;6.40
35582;BMP180;21687;48.900;9.188;2024-03-08T11:02:17;97902.00;;;6.50
35582;BMP180;21687;48.900;9.188;2024-03-08T11:05:09;97904.00;;;6.60
35582;BMP180;21687;48.900;9.188;2024-03-08T11:07:59;97903.00;;;6.70
35582;BMP180;21687;48.900;9.188;2024-03-08T11:10:52;97905.00;;;7.00
35582;BMP180;21687;48.900;9.188;2024-03-08T11:13:44;97898.00;;;6.90
35582;BMP180;21687;48.900;9.188;2024-03-08T11:22:04;97878.00;;;5.90
35582;BMP180;21687;48.900;9.188;2024-03-08T11:24:51;97879.00;;;5.80
35582;BMP180;21687;48.900;9.188;2024-03-08T11:27:37;97880.00;;;5.70
35582;BMP180;21687;48.900;9.188;2024-03-08T11:30:24;97866.00;;;5.60
35582;BMP180;21687;48.900;9.188;2024-03-08T11:33:13;97871.00;;;5.70
35582;BMP180;21687;48.900;9.188;2024-03-08T11:36:24;97865.00;;;5.70
35582;BMP180;21687;48.900;9.188;2024-03-08T11:39:11;97865.00;;;5.70
35582;BMP180;21687;48.900;9.188;2024-03-08T11:42:01;97851.00;;;5.80
35582;BMP180;21687;48.900;9.188;2024-03-08T11:44:47;97856.00;;;5.80
35582;BMP180;21687;48.900;9.188;2024-03-08T11:47:35;97853.00;;;5.70
35582;BMP180;21687;48.900;9.188;2024-03-08T11:50:22;97857.00;;;5.80
35582;BMP180;21687;48.900;9.188;2024-03-08T11:53:09;97834.00;;;5.80
35582;BMP180;21687;48.900;9.188;2024-03-08T11:56:08;97828.00;;;5.90
35582;BMP180;21687;48.900;9.188;2024-03-08T11:58:56;97834.00;;;6.00
35582;BMP180;21687;48.900;9.188;2024-03-08T12:01:43;97833.00;;;6.00
35582;BMP180;21687;48.900;9.188;2024-03-08T12:04:31;97815.00;;;6.10
35582;BMP180;21687;48.900;9.188;2024-03-08T12:07:17;97817.00;;;6.10
35582;BMP180;21687;48.900;9.188;2024-03-08T12:10:21;97818.00;;;6.10
35582;BMP180;21687;48.900;9.188;2024-03-08T12:13:08;97807.00;;;6.20
35582;BMP180;21687;48.900;9.188;2024-03-08T12:15:59;97806.00;;;6.30
35582;BMP180;21687;48.900;9.188;2024-03-08T12:18:47;97793.00;;;6.30
35582;BMP180;21687;48.900;9.188;2024-03-08T12:21:34;97783.00;;;6.50
35582;BMP180;21687;48.900;9.188;2024-03-08T12:24:22;97789.00;;;6.50
35582;BMP180;21687;48.900;9.188;2024-03-08T12:27:19;97789.00;;;6.60
35582;BMP180;21687;48.900;9.188;2024-03-08T12:33:07;97779.00;;;6.60
35582;BMP180;21687;48.900;9.188;2024-03-08T12:35:57;97771.00;;;6.70
35582;BMP180;21687;48.900;9.188;2024-03-08T12:38:50;97766.00;;;6.80
35582;BMP180;21687;48.900;9.188;2024-03-08T12:41:40;97756.00;;;7.00
35582;BMP180;21687;48.900;9.188;2024-03-08T12:44:27;97749.00;;;7.10
35582;BMP180;21687;48.900;9.188;2024-03-08T12:47:15;97757.00;;;7.10
35582;BMP180;21687;48.900;9.188;2024-03-08T12:50:02;97750.00;;;7.20
35582;BMP180;21687;48.900;9.188;2024-03-08T12:52:50;97748.00;;;7.20
35582;BMP180;21687;48.900;9.188;2024-03-08T12:55:37;97741.00;;;7.30
35582;BMP180;21687;48.900;9.188;2024-03-08T12:58:25;97738.00;;;7.30
35582;BMP180;21687;48.900;9.188;2024-03-08T13:01:12;97734.00;;;7.20
35582;BMP180;21687;48.900;9.188;2024-03-08T13:03:59;97729.00;;;7.20
35582;BMP180;21687;48.900;9.188;2024-03-08T13:06:49;97710.00;;;7.30
35582;BMP180;21687;48.900;9.188;2024-03-08T13:09:36;97714.00;;;7.40
35582;BMP180;21687;48.900;9.188;2024-03-08T13:12:23;97709.00;;;7.60
35582;BMP180;21687;48.900;9.188;2024-03-08T13:15:10;97709.00;;;7.70
35582;BMP180;21687;48.900;9.188;2024-03-08T13:18:01;97702.00;;;7.70
35582;BMP180;21687;48.900;9.188;2024-03-08T13:20:47;97693.00;;;7.80
35582;BMP180;21687;48.900;9.188;2024-03-08T13:23:39;97690.00;;;7.90
35582;BMP180;21687;48.900;9.188;2024-03-08T13:26:26;97685.00;;;7.80
35582;BMP180;21687;48.900;9.188;2024-03-08T13:29:18;97686.00;;;7.80
35582;BMP180;21687;48.900;9.188;2024-03-08T13:32:05;97684.00;;;7.80
35582;BMP180;21687;48.900;9.188;2024-03-08T13:34:52;97678.00;;;7.90
35582;BMP180;21687;48.900;9.188;2024-03-08T13:37:40;97676.00;;;7.90
35582;BMP180;21687;48.900;9.188;2024-03-08T13:40:27;97668.00;;;8.00
35582;BMP180;21687;48.900;9.188;2024-03-08T13:43:13;97673.00;;;8.10
35582;BMP180;21687;48.900;9.188;2024-03-08T13:46:00;97652.00;;;8.20
35582;BMP180;21687;48.900;9.188;2024-03-08T13:48:46;97654.00;;;8.30
35582;BMP180;21687;48.900;9.188;2024-03-08T13:51:34;97658.00;;;8.40
35582;BMP180;21687;48.900;9.188;2024-03-08T13:54:21;97649.00;;;8.30
35582;BMP180;21687;48.900;9.188;2024-03-08T13:57:07;97644.00;;;8.20
35582;BMP180;21687;48.900;9.188;2024-03-08T13:59:54;97646.00;;;8.40
35582;BMP180;21687;48.900;9.188;2024-03-08T14:02:42;97638.00;;;8.30
35582;BMP180;21687;48.900;9.188;2024-03-08T14:05:29;97632.00;;;8.40
35582;BMP180;21687;48.900;9.188;2024-03-08T14:08:18;97634.00;;;8.50
35582;BMP180;21687;48.900;9.188;2024-03-08T14:11:05;97617.00;;;8.40
35582;BMP180;21687;48.900;9.188;2024-03-08T14:13:58;97608.00;;;8.50
35582;BMP180;21687;48.900;9.188;2024-03-08T14:16:45;97609.00;;;8.50
35582;BMP180;21687;48.900;9.188;2024-03-08T14:19:31;97614.00;;;8.50
35582;BMP180;21687;48.900;9.188;2024-03-08T14:22:18;97608.00;;;8.60
35582;BMP180;21687;48.900;9.188;2024-03-08T14:25:05;97600.00;;;8.60
35582;BMP180;21687;48.900;9.188;2024-03-08T14:27:53;97605.00;;;8.70
35582;BMP180;21687;48.900;9.188;2024-03-08T14:30:40;97597.00;;;8.70
35582;BMP180;21687;48.900;9.188;2024-03-08T14:33:27;97592.00;;;8.70
35582;BMP180;21687;48.900;9.188;2024-03-08T14:36:14;97580.00;;;8.70
35582;BMP180;21687;48.900;9.188;2024-03-08T14:39:03;97600.00;;;8.70
35582;BMP180;21687;48.900;9.188;2024-03-08T14:41:49;97575.00;;;8.90
35582;BMP180;21687;48.900;9.188;2024-03-08T14:44:39;97582.00;;;8.90
35582;BMP180;21687;48.900;9.188;2024-03-08T14:47:26;97587.00;;;8.90
35582;BMP180;21687;48.900;9.188;2024-03-08T14:50:12;97588.00;;;9.00
35582;BMP180;21687;48.900;9.188;2024-03-08T14:52:59;97591.00;;;9.00
35582;BMP180;21687;48.900;9.188;2024-03-08T14:55:46;97576.00;;;9.10
35582;BMP180;21687;48.900;9.188;2024-03-08T14:58:33;97562.00;;;9.10
35582;BMP180;21687;48.900;9.188;2024-03-08T15:01:20;97562.00;;;9.00
35582;BMP180;21687;48.900;9.188;2024-03-08T15:04:14;97560.00;;;9.10
35582;BMP180;21687;48.900;9.188;2024-03-08T15:07:02;97552.00;;;9.20
35582;BMP180;21687;48.900;9.188;2024-03-08T15:09:52;97550.00;;;9.20
35582;BMP180;21687;48.900;9.188;2024-03-08T15:12:38;97548.00;;;9.30
35582;BMP180;21687;48.900;9.188;2024-03-08T15:15:26;97538.00;;;9.20
35582;BMP180;21687;48.900;9.188;2024-03-08T15:18:12;97533.00;;;9.30
35582;BMP180;21687;48.900;9.188;2024-03-08T15:20:59;97528.00;;;9.20
35582;BMP180;21687;48.900;9.188;2024-03-08T15:23:45;97527.00;;;9.30
35582;BMP180;21687;48.900;9.188;2024-03-08T15:26:40;97521.00;;;9.30
35582;BMP180;21687;48.900;9.188;2024-03-08T15:29:27;97521.00;;;9.30
35582;BMP180;21687;48.900;9.188;2024-03-08T15:32:13;97514.00;;;9.40
35582;BMP180;21687;48.900;9.188;2024-03-08T15:35:06;97502.00;;;9.40
35582;BMP180;21687;48.900;9.188;2024-03-08T15:37:53;97503.00;;;9.40
35582;BMP180;21687;48.900;9.188;2024-03-08T15:40:43;97498.00;;;9.50
35582;BMP180;21687;48.900;9.188;2024-03-08T15:43:33;97499.00;;;9.50
35582;BMP180;21687;48.900;9.188;2024-03-08T15:46:23;97496.00;;;9.50
35582;BMP180;21687;48.900;9.188;2024-03-08T15:49:09;97495.00;;;9.50
35582;BMP180;21687;48.900;9.188;2024-03-08T15:51:57;97490.00;;;9.50
35582;BMP180;21687;48.900;9.188;2024-03-08T15:54:43;97487.00;;;9.40
35582;BMP180;21687;48.900;9.188;2024-03-08T15:57:30;97483.00;;;9.40
35582;BMP180;21687;48.900;9.188;2024-03-08T16:00:20;97484.00;;;9.40
35582;BMP180;21687;48.900;9.188;2024-03-08T16:03:23;97471.00;;;9.50
35582;BMP180;21687;48.900;9.188;2024-03-08T16:06:09;97474.00;;;9.40
35582;BMP180;21687;48.900;9.188;2024-03-08T16:08:55;97476.00;;;9.40
35582;BMP180;21687;48.900;9.188;2024-03-08T16:11:42;97476.00;;;9.40
35582;BMP180;21687;48.900;9.188;2024-03-08T16:14:30;97460.00;;;9.30
35582;BMP180;21687;48.900;9.188;2024-03-08T16:17:17;97464.00;;;9.40
35582;BMP180;21687;48.900;9.188;2024-03-08T16:20:04;97464.00;;;9.20
35582;BMP180;21687;48.900;9.188;2024-03-08T16:22:57;97464.00;;;9.30
35582;BMP180;21687;48.900;9.188;2024-03-08T16:25:44;97455.00;;;9.30
35582;BMP180;21687;48.900;9.188;2024-03-08T16:28:31;97456.00;;;9.20